Time;durP1;ratioP1;P1;durP2;ratioP2;P2;SDS_P1;SDS_P2;PMS_P1;PMS_P2;Temp;Humidity;BMP_temperature;BMP_pressure;BME280_temperature;BME280_humidity;BME280_pressure;Samples;Min_cycle;Max_cycle;Signal;HPM_P1;HPM_P2
2021/10/22 00:01:14;;;;;;;;;;;11.70;99.90;;;10.79;68.07;95388.69;10551405;28;1736;-76
2021/10/22 00:06:18;;;;;;;;;;;11.70;99.90;;;10.77;68.60;95393.56;10566926;28;1863;-75
2021/10/22 00:11:21;;;;;;;;;;;11.70;99.90;;;10.75;69.15;95411.03;10567266;28;1922;-75
2021/10/22 00:16:25;;;;;;;;;;;11.70;99.90;;;10.72;69.55;95422.38;10568592;28;1999;-74
2021/10/22 00:21:28;;;;;;;;;;;11.70;99.90;;;10.72;69.64;95427.75;10563900;28;1847;-75
2021/10/22 00:26:30;;;;;;;;;;;11.70;99.90;;;10.76;69.78;95443.03;10564979;28;1866;-74
2021/10/22 00:31:33;;;;;;;;;;;11.70;99.90;;;10.65;70.88;95459.53;10563291;28;1925;-76
2021/10/22 00:36:36;;;;;;;;;;;11.60;99.90;;;10.66;72.29;95459.25;10566812;28;1994;-75
2021/10/22 00:41:39;;;;;;;;;;;11.60;99.90;;;10.33;77.47;95468.09;10561013;28;1894;-74
2021/10/22 00:46:42;;;;;;;;;;;11.40;99.90;;;9.84;84.38;95471.56;10571346;28;1847;-74
2021/10/22 00:51:45;;;;;;;;;;;11.10;99.90;;;9.47;90.58;95473.56;10575330;27;2042;-74
2021/10/22 00:56:48;;;;;;;;;;;10.70;99.90;;;9.18;100.00;95480.66;10576400;27;2017;-77
2021/10/22 01:01:51;;;;;;;;;;;10.30;99.90;;;8.84;100.00;95493.81;10554684;27;1897;-74
2021/10/22 01:06:55;;;;;;;;;;;10.00;99.90;;;8.66;100.00;95495.97;10576422;28;1826;-71
2021/10/22 01:12:02;;;;;;;;;;;9.80;99.90;;;8.71;100.00;95492.47;10574698;28;1910;-73
2021/10/22 01:17:07;;;;;;;;;;;9.70;99.90;;;8.64;100.00;95492.75;10555965;28;2081;-74
2021/10/22 01:22:11;;;;;;;;;;;9.70;99.90;;;8.59;100.00;95495.44;10572687;28;1901;-75
2021/10/22 01:27:27;;;;;;;;;;;9.60;99.90;;;8.50;100.00;95502.38;10554717;28;1871;-74
2021/10/22 01:32:31;;;;;;;;;;;9.50;99.90;;;8.47;100.00;95494.09;10573123;27;1961;-72
2021/10/22 01:37:54;;;;;;;;;;;9.50;99.90;;;8.47;100.00;95489.53;10572778;27;1906;-75
2021/10/22 01:42:57;;;;;;;;;;;9.50;99.90;;;8.42;100.00;95486.84;10567070;28;1960;-75
2021/10/22 01:48:00;;;;;;;;;;;9.40;99.90;;;8.36;100.00;95493.28;10572943;28;1912;-75
2021/10/22 01:53:03;;;;;;;;;;;9.40;99.90;;;8.25;100.00;95495.09;10566846;28;1853;-74
2021/10/22 01:58:06;;;;;;;;;;;9.30;99.90;;;8.23;100.00;95491.09;10573332;28;2155;-74
2021/10/22 02:03:09;;;;;;;;;;;9.20;99.90;;;8.20;100.00;95495.06;10570250;27;1903;-73
2021/10/22 02:08:12;;;;;;;;;;;9.20;99.90;;;8.22;100.00;95500.19;10573355;28;1896;-76
2021/10/22 02:13:15;;;;;;;;;;;9.20;99.90;;;8.13;100.00;95499.88;10568982;27;1921;-76
2021/10/22 02:18:18;;;;;;;;;;;9.10;99.90;;;8.15;100.00;95510.34;10570564;27;3530;-74
2021/10/22 02:23:20;;;;;;;;;;;9.10;99.90;;;8.21;100.00;95504.75;10569891;27;1953;-75
2021/10/22 02:28:23;;;;;;;;;;;9.20;99.90;;;8.18;100.00;95515.16;10572011;28;1953;-75
2021/10/22 02:33:26;;;;;;;;;;;9.10;99.90;;;8.22;100.00;95514.38;10568001;28;1962;-73
2021/10/22 02:38:29;;;;;;;;;;;9.20;99.90;;;8.22;100.00;95519.75;10565503;28;1978;-74
2021/10/22 02:43:33;;;;;;;;;;;9.20;99.90;;;8.25;100.00;95510.34;10570389;28;1893;-75
2021/10/22 02:48:36;;;;;;;;;;;9.20;99.90;;;8.24;100.00;95520.28;10570375;27;2124;-75
2021/10/22 02:53:39;;;;;;;;;;;9.20;99.90;;;8.21;100.00;95539.56;10568876;28;1992;-74
2021/10/22 02:58:41;;;;;;;;;;;9.20;99.90;;;7.85;100.00;95541.31;10569527;27;1918;-76
2021/10/22 03:03:44;;;;;;;;;;;9.00;99.90;;;7.63;100.00;95535.31;10569435;28;1925;-75
2021/10/22 03:08:47;;;;;;;;;;;8.80;99.90;;;7.71;100.00;95537.50;10568739;28;2103;-75
2021/10/22 03:13:50;;;;;;;;;;;8.70;99.90;;;7.68;100.00;95546.84;10568842;28;2038;-74
2021/10/22 03:18:53;;;;;;;;;;;8.70;99.90;;;7.65;100.00;95550.03;10570728;27;1953;-74
2021/10/22 03:23:56;;;;;;;;;;;8.60;99.90;;;7.60;100.00;95552.69;10569904;28;1778;-74
2021/10/22 03:28:59;;;;;;;;;;;8.60;99.90;;;7.52;100.00;95554.00;10571204;28;1978;-76
2021/10/22 03:34:02;;;;;;;;;;;8.50;99.90;;;7.47;100.00;95556.63;10567291;28;1959;-76
2021/10/22 03:39:05;;;;;;;;;;;8.40;99.90;;;7.28;100.00;95566.94;10570125;28;1906;-75
2021/10/22 03:44:08;;;;;;;;;;;8.40;99.90;;;7.08;100.00;95582.84;10568900;27;2040;-75
2021/10/22 03:49:10;;;;;;;;;;;8.10;99.90;;;6.86;100.00;95580.25;10569641;28;1981;-75
2021/10/22 03:54:14;;;;;;;;;;;7.90;99.90;;;6.72;100.00;95584.41;10569426;28;2075;-77
2021/10/22 03:59:17;;;;;;;;;;;7.70;99.90;;;6.54;100.00;95593.59;10566119;28;1910;-75
2021/10/22 04:04:27;;;;;;;;;;;7.50;99.90;;;6.47;100.00;95575.09;10570330;28;1981;-77
2021/10/22 04:09:31;;;;;;;;;;;7.40;99.90;;;6.50;100.00;95584.47;10567144;28;2021;-75
2021/10/22 04:14:34;;;;;;;;;;;7.50;99.90;;;6.44;100.00;95593.50;10568630;28;2036;-76
2021/10/22 04:19:39;;;;;;;;;;;7.40;99.90;;;6.29;100.00;95599.47;10574034;27;2162;-74
2021/10/22 04:24:42;;;;;;;;;;;7.30;99.90;;;6.15;100.00;95590.25;10550809;28;2015;-76
2021/10/22 04:29:44;;;;;;;;;;;7.20;99.90;;;5.99;100.00;95599.13;10578739;28;1877;-76
2021/10/22 04:34:47;;;;;;;;;;;7.00;99.90;;;5.86;100.00;95593.09;10573445;28;2099;-76
2021/10/22 04:45:15;;;;;;;;;;;6.70;99.90;;;5.68;100.00;95602.19;10575441;28;2004;-75
2021/10/22 04:50:18;;;;;;;;;;;6.70;99.90;;;5.72;100.00;95596.34;10576099;28;2064;-75
2021/10/22 04:55:21;;;;;;;;;;;6.70;99.90;;;5.64;100.00;95589.59;10557241;28;1918;-75
2021/10/22 05:00:24;;;;;;;;;;;6.70;99.90;;;5.79;100.00;95592.47;10576758;28;1976;-75
2021/10/22 05:05:27;;;;;;;;;;;6.70;99.90;;;5.94;100.00;95602.53;10574118;28;2076;-76
2021/10/22 05:10:30;;;;;;;;;;;6.80;99.90;;;5.94;100.00;95599.88;10574613;28;1924;-76
2021/10/22 05:15:33;;;;;;;;;;;6.80;99.90;;;5.79;100.00;95608.47;10568568;28;2115;-75
2021/10/22 05:20:36;;;;;;;;;;;6.80;99.90;;;5.56;100.00;95619.34;10582149;28;1888;-76
2021/10/22 05:25:44;;;;;;;;;;;6.70;99.90;;;5.41;100.00;95626.09;10560474;28;2021;-74
2021/10/22 05:30:47;;;;;;;;;;;6.50;99.90;;;5.32;100.00;95624.88;10579453;28;1960;-75
2021/10/22 05:35:50;;;;;;;;;;;6.30;99.90;;;5.32;100.00;95632.06;10579641;28;2004;-74
2021/10/22 05:40:53;;;;;;;;;;;6.20;99.90;;;5.33;100.00;95621.16;10586416;27;1858;-74
2021/10/22 05:45:56;;;;;;;;;;;6.40;99.90;;;5.44;100.00;95638.09;10582224;28;1890;-77
2021/10/22 05:51:00;;;;;;;;;;;6.50;99.90;;;5.46;100.00;95645.84;10580601;28;1882;-75
2021/10/22 05:56:03;;;;;;;;;;;6.40;99.90;;;5.20;100.00;95645.47;10587857;27;1953;-77
2021/10/22 06:01:06;;;;;;;;;;;6.30;99.90;;;5.25;100.00;95639.41;10599665;28;1906;-74
2021/10/22 06:06:28;;;;;;;;;;;6.20;99.90;;;5.43;100.00;95642.63;10580829;28;1913;-74
2021/10/22 06:11:31;;;;;;;;;;;6.30;99.90;;;5.40;100.00;95648.44;10561166;27;1987;-74
2021/10/22 06:16:34;;;;;;;;;;;6.30;99.90;;;5.55;100.00;95655.88;10576923;28;1973;-74
2021/10/22 06:21:51;;;;;;;;;;;6.50;99.90;;;5.57;100.00;95675.09;10574804;28;1874;-75
2021/10/22 06:26:54;;;;;;;;;;;6.50;99.90;;;5.66;100.00;95675.47;10580003;27;3552;-75
2021/10/22 06:31:57;;;;;;;;;;;6.60;99.90;;;5.77;100.00;95679.91;10575858;27;3013;-74
2021/10/22 06:37:00;;;;;;;;;;;6.70;99.90;;;6.01;100.00;95695.75;10573623;28;2310;-73
2021/10/22 06:42:03;;;;;;;;;;;6.80;99.90;;;6.04;100.00;95689.91;10555146;28;1812;-73
2021/10/22 06:47:06;;;;;;;;;;;6.90;99.90;;;6.24;100.00;95690.19;10582428;28;1850;-74
2021/10/22 06:52:09;;;;;;;;;;;7.10;99.90;;;6.44;100.00;95690.44;10584661;27;1918;-73
2021/10/22 06:57:12;;;;;;;;;;;7.20;99.90;;;6.43;100.00;95683.47;10575947;28;1926;-75
2021/10/22 07:02:15;;;;;;;;;;;7.30;99.90;;;6.66;100.00;95686.91;10580421;27;2087;-74
2021/10/22 07:07:19;;;;;;;;;;;7.40;99.90;;;6.66;100.00;95692.25;10593590;28;1103;-75
2021/10/22 07:12:22;;;;;;;;;;;7.50;99.90;;;6.74;100.00;95699.81;10579888;28;2200;-74
2021/10/22 07:17:25;;;;;;;;;;;7.60;99.90;;;6.86;100.00;95707.69;10574441;27;1906;-76
2021/10/22 07:22:32;;;;;;;;;;;7.70;99.90;;;6.87;100.00;95707.47;10568569;28;1953;-75
2021/10/22 07:27:35;;;;;;;;;;;7.70;99.90;;;6.87;100.00;95718.16;10569910;28;1942;-73
2021/10/22 07:32:38;;;;;;;;;;;7.80;99.90;;;6.65;100.00;95733.38;10571374;28;1823;-73
2021/10/22 07:37:41;;;;;;;;;;;7.70;99.90;;;6.53;100.00;95751.41;10554268;27;1916;-73
2021/10/22 07:42:44;;;;;;;;;;;7.50;99.90;;;6.29;100.00;95767.66;10581325;28;1980;-72
2021/10/22 07:47:47;;;;;;;;;;;7.30;99.90;;;6.34;100.00;95778.41;10581849;28;1977;-72
2021/10/22 07:52:50;;;;;;;;;;;7.30;99.90;;;6.47;100.00;95782.56;10574895;28;1891;-73
2021/10/22 07:57:53;;;;;;;;;;;7.30;99.90;;;6.61;100.00;95785.69;10549865;28;1974;-74
2021/10/22 08:02:56;;;;;;;;;;;7.40;99.90;;;6.86;100.00;95794.00;10575485;28;2574;-75
2021/10/22 08:07:59;;;;;;;;;;;7.50;99.90;;;6.69;100.00;95798.63;10565318;28;1882;-74
2021/10/22 08:13:04;;;;;;;;;;;7.60;99.90;;;6.47;100.00;95793.25;10564539;28;3370;-74
2021/10/22 08:18:15;;;;;;;;;;;7.50;99.90;;;6.63;100.00;95816.44;10563955;28;2641;-74
2021/10/22 08:23:18;;;;;;;;;;;7.50;99.90;;;6.86;100.00;95820.72;10565389;28;2363;-73
2021/10/22 08:28:21;;;;;;;;;;;7.70;99.90;;;7.02;100.00;95813.72;10569565;28;1945;-74
2021/10/22 08:33:24;;;;;;;;;;;7.90;99.90;;;7.09;100.00;95819.66;10565343;28;2336;-74
2021/10/22 08:38:27;;;;;;;;;;;7.90;99.90;;;7.47;100.00;95837.47;10571164;28;1909;-73
2021/10/22 08:43:31;;;;;;;;;;;8.20;99.90;;;7.46;100.00;95829.69;10565917;28;1990;-73
2021/10/22 08:48:35;;;;;;;;;;;8.40;99.90;;;7.74;100.00;95836.66;10567560;28;2391;-74
2021/10/22 08:53:38;;;;;;;;;;;8.50;99.90;;;8.01;100.00;95836.59;10568519;28;1874;-73
2021/10/22 08:58:41;;;;;;;;;;;8.70;99.90;;;8.54;100.00;95833.00;10564240;28;1914;-74
2021/10/22 09:03:44;;;;;;;;;;;8.90;99.90;;;8.49;100.00;95846.38;10569014;28;2012;-74
2021/10/22 09:08:47;;;;;;;;;;;9.20;99.90;;;8.60;100.00;95840.00;10557524;28;1835;-74
2021/10/22 09:13:52;;;;;;;;;;;9.20;99.90;;;8.75;99.04;95849.19;10550971;27;1885;-74
2021/10/22 09:18:55;;;;;;;;;;;9.40;99.90;;;9.05;99.97;95864.63;10574069;28;1921;-74
2021/10/22 09:23:58;;;;;;;;;;;9.50;99.90;;;9.05;98.81;95878.84;10572800;28;1880;-73
2021/10/22 09:29:01;;;;;;;;;;;9.70;99.90;;;9.05;98.42;95868.13;10571964;28;1862;-74
2021/10/22 09:34:08;;;;;;;;;;;9.80;99.90;;;8.87;95.61;95855.97;10574188;28;1913;-73
2021/10/22 09:39:13;;;;;;;;;;;9.70;99.90;;;8.79;93.22;95869.88;10570938;28;2199;-74
2021/10/22 09:44:16;;;;;;;;;;;9.70;99.90;;;8.56;93.74;95876.41;10575687;28;1937;-73
2021/10/22 09:49:19;;;;;;;;;;;9.40;99.90;;;8.38;92.17;95879.50;10574939;28;2365;-73
2021/10/22 09:54:22;;;;;;;;;;;9.40;99.90;;;8.44;94.63;95883.81;10562250;28;1869;-73
2021/10/22 09:59:26;;;;;;;;;;;9.30;99.90;;;8.56;93.78;95884.44;10573248;28;1984;-71
2021/10/22 10:04:29;;;;;;;;;;;9.40;99.90;;;8.77;93.61;95887.25;10572674;28;1830;-71
2021/10/22 10:09:40;;;;;;;;;;;9.50;99.90;;;8.88;91.34;95892.41;10570876;27;1901;-72
2021/10/22 10:14:43;;;;;;;;;;;9.60;99.90;;;8.97;90.41;95900.81;10569996;28;1944;-74
2021/10/22 10:19:46;;;;;;;;;;;9.60;99.90;;;8.87;86.20;95898.06;10573571;28;1988;-73
2021/10/22 10:24:49;;;;;;;;;;;9.70;99.90;;;9.00;88.91;95889.53;10566455;27;1933;-73
2021/10/22 10:29:52;;;;;;;;;;;9.70;99.90;;;9.18;86.27;95880.25;10568054;28;1973;-72
2021/10/22 10:34:55;;;;;;;;;;;9.90;99.90;;;9.35;84.08;95880.03;10568803;28;1909;-74
2021/10/22 10:39:58;;;;;;;;;;;10.00;99.90;;;9.48;83.61;95892.97;10569330;28;1914;-73
2021/10/22 10:45:00;;;;;;;;;;;10.20;99.90;;;9.72;84.41;95899.47;10568936;28;1854;-72
2021/10/22 10:50:04;;;;;;;;;;;10.30;99.90;;;9.69;82.90;95891.16;10562664;28;1974;-74
2021/10/22 10:55:08;;;;;;;;;;;10.30;99.90;;;9.98;80.51;95891.47;10575317;28;1933;-74
2021/10/22 11:00:11;;;;;;;;;;;10.50;99.90;;;10.12;79.61;95887.19;10567823;28;1988;-73
2021/10/22 11:05:14;;;;;;;;;;;10.80;99.90;;;9.79;82.10;95885.78;10570794;28;1893;-72
2021/10/22 11:10:17;;;;;;;;;;;10.70;99.90;;;9.86;78.45;95882.84;10569133;28;1862;-72
2021/10/22 11:15:23;;;;;;;;;;;10.70;99.90;;;9.88;75.61;95872.66;10569503;28;1929;-72
2021/10/22 11:20:26;;;;;;;;;;;10.70;99.90;;;9.73;75.77;95884.16;10565553;27;2000;-73
2021/10/22 11:25:29;;;;;;;;;;;10.60;99.90;;;9.92;75.50;95871.84;10571252;28;1945;-72
2021/10/22 11:30:32;;;;;;;;;;;10.60;99.90;;;10.10;73.05;95862.47;10568463;28;1784;-73
2021/10/22 11:35:35;;;;;;;;;;;10.70;99.90;;;10.07;70.69;95875.63;10556377;28;1478;-73
2021/10/22 11:40:38;;;;;;;;;;;10.80;99.90;;;10.12;70.40;95868.41;10570564;28;1976;-73
2021/10/22 11:45:41;;;;;;;;;;;10.80;99.90;;;10.03;73.08;95867.31;10569460;28;1913;-74
2021/10/22 11:50:44;;;;;;;;;;;10.80;99.90;;;10.35;70.29;95863.56;10569243;28;1908;-71
2021/10/22 11:55:48;;;;;;;;;;;10.90;99.90;;;10.14;72.57;95865.44;10571402;28;1969;-75
2021/10/22 12:00:50;;;;;;;;;;;11.00;99.90;;;10.45;71.64;95863.59;10565948;28;1936;-73
2021/10/22 12:05:58;;;;;;;;;;;11.20;99.90;;;10.58;70.69;95863.03;10565802;28;1805;-73
2021/10/22 12:11:01;;;;;;;;;;;11.30;99.90;;;10.71;73.24;95865.16;10557123;28;1866;-74
2021/10/22 12:16:04;;;;;;;;;;;11.60;99.90;;;11.01;69.54;95839.28;10562882;28;3308;-73
2021/10/22 12:21:07;;;;;;;;;;;11.70;99.90;;;10.94;69.40;95839.56;10561288;28;2402;-72
2021/10/22 12:26:10;;;;;;;;;;;11.80;99.90;;;10.47;63.75;95827.28;10566087;28;2367;-73
2021/10/22 12:31:13;;;;;;;;;;;11.60;99.90;;;10.26;64.66;95823.03;10557663;28;2320;-73
2021/10/22 12:36:16;;;;;;;;;;;11.40;99.90;;;10.53;62.37;95828.09;10570153;27;1988;-73
2021/10/22 12:41:19;;;;;;;;;;;11.30;99.90;;;10.19;63.07;95834.00;10557324;28;1479;-74
2021/10/22 12:46:22;;;;;;;;;;;11.30;99.90;;;10.45;64.24;95832.13;10575619;28;1713;-74
2021/10/22 12:51:25;;;;;;;;;;;11.30;99.90;;;10.79;64.54;95828.84;10573824;28;2435;-76
2021/10/22 12:56:28;;;;;;;;;;;11.50;99.90;;;10.64;67.59;95851.19;10580388;27;2024;-73
2021/10/22 13:01:32;;;;;;;;;;;11.60;99.90;;;11.01;65.75;95844.66;10573592;28;1978;-73
2021/10/22 13:06:37;;;;;;;;;;;11.70;99.90;;;10.70;64.24;95844.72;10571295;28;2055;-73
2021/10/22 13:12:05;;;;;;;;;;;11.70;99.90;;;10.31;64.56;95851.75;10573730;28;1944;-72
2021/10/22 13:22:28;;;;;;;;;;;11.10;99.90;;;9.70;66.85;95858.66;10567576;28;1953;-73
2021/10/22 13:27:31;;;;;;;;;;;10.80;99.90;;;9.74;66.45;95856.28;10564708;28;2571;-72
2021/10/22 13:32:34;;;;;;;;;;;10.70;99.90;;;9.82;66.23;95860.31;10568966;27;1957;-73
2021/10/22 13:37:37;;;;;;;;;;;10.80;99.90;;;9.90;67.02;95857.09;10575229;27;1910;-71
2021/10/22 13:42:40;;;;;;;;;;;10.80;99.90;;;9.96;64.90;95872.13;10566464;28;1878;-74
2021/10/22 13:47:43;;;;;;;;;;;10.80;99.90;;;9.70;64.11;95873.97;10567923;28;1839;-74
2021/10/22 13:52:46;;;;;;;;;;;10.80;99.90;;;9.48;63.70;95874.19;10572703;28;1886;-74
2021/10/22 13:57:55;;;;;;;;;;;10.70;99.90;;;9.30;63.67;95880.84;10571865;28;1974;-74
2021/10/22 14:02:58;;;;;;;;;;;10.40;99.90;;;9.32;63.71;95876.00;10572449;28;1946;-76
2021/10/22 14:08:01;;;;;;;;;;;10.40;99.90;;;9.28;64.48;95882.94;10571930;28;2015;-74
2021/10/22 14:13:10;;;;;;;;;;;10.30;99.90;;;9.17;64.93;95875.97;10569489;27;1942;-73
2021/10/22 14:18:28;;;;;;;;;;;10.20;99.90;;;8.95;64.53;95865.38;10570157;27;1982;-74
2021/10/22 14:24:00;;;;;;;;;;;10.10;99.90;;;8.84;67.16;95861.03;10571726;28;1965;-73
2021/10/22 14:29:07;;;;;;;;;;;10.00;99.90;;;8.73;66.88;95870.09;10571600;28;1952;-74
2021/10/22 14:34:10;;;;;;;;;;;9.90;99.90;;;8.71;66.51;95869.53;10562907;28;2144;-74
2021/10/22 14:39:23;;;;;;;;;;;9.90;99.90;;;8.63;67.04;95882.34;10568053;28;1982;-73
2021/10/22 14:44:30;;;;;;;;;;;9.80;99.90;;;8.53;67.67;95887.66;10568915;27;1826;-76
2021/10/22 14:49:35;;;;;;;;;;;9.80;99.90;;;8.42;68.95;95887.84;10572715;28;1882;-74
2021/10/22 14:54:41;;;;;;;;;;;9.60;99.90;;;8.48;68.25;95889.50;10569273;28;1977;-73
2021/10/22 14:59:44;;;;;;;;;;;9.70;99.90;;;8.42;69.96;95887.84;10570557;28;2037;-76
2021/10/22 15:04:47;;;;;;;;;;;9.60;99.90;;;8.45;68.82;95890.81;10550903;28;2327;-76
2021/10/22 15:09:50;;;;;;;;;;;9.60;99.90;;;8.33;70.34;95887.47;10571671;28;1851;-75
2021/10/22 15:14:53;;;;;;;;;;;9.50;99.90;;;8.27;73.24;95896.50;10566778;27;1996;-74
2021/10/22 15:19:56;;;;;;;;;;;9.50;99.90;;;8.22;71.91;95885.78;10569033;28;1926;-76
2021/10/22 15:24:59;;;;;;;;;;;9.50;99.90;;;8.13;73.41;95886.22;10565743;28;1851;-74
2021/10/22 15:30:02;;;;;;;;;;;9.40;99.90;;;8.11;73.72;95901.75;10570025;28;1965;-75
2021/10/22 15:35:05;;;;;;;;;;;9.40;99.90;;;8.02;75.21;95905.16;10568039;28;1898;-75
2021/10/22 15:40:08;;;;;;;;;;;9.30;99.90;;;7.96;75.12;95904.31;10567756;28;2052;-75
2021/10/22 15:45:11;;;;;;;;;;;9.30;99.90;;;7.84;75.61;95906.34;10566358;28;1946;-73
2021/10/22 15:50:14;;;;;;;;;;;9.20;99.90;;;7.73;77.64;95912.63;10565796;28;1874;-74
2021/10/22 15:55:17;;;;;;;;;;;9.10;99.90;;;7.56;79.74;95916.19;10549268;28;1838;-74
2021/10/22 16:00:24;;;;;;;;;;;9.00;99.90;;;7.55;80.14;95911.91;10565636;28;2223;-75
2021/10/22 16:05:27;;;;;;;;;;;8.90;99.90;;;7.46;81.26;95910.75;10566531;28;2224;-75
2021/10/22 16:10:38;;;;;;;;;;;8.80;99.90;;;7.32;82.81;95912.19;10573184;28;1850;-75
2021/10/22 16:15:42;;;;;;;;;;;8.70;99.90;;;7.25;83.23;95915.06;10575679;28;1941;-74
2021/10/22 16:20:45;;;;;;;;;;;8.60;99.90;;;7.17;84.81;95930.69;10581058;27;1975;-74
2021/10/22 16:25:51;;;;;;;;;;;8.50;99.90;;;7.05;85.77;95930.81;10567912;28;3471;-75
2021/10/22 16:30:57;;;;;;;;;;;8.50;99.90;;;6.98;85.81;95940.88;10573437;28;3419;-74
2021/10/22 16:36:00;;;;;;;;;;;8.40;99.90;;;6.87;87.31;95955.13;10584933;27;2331;-73
2021/10/22 16:41:03;;;;;;;;;;;8.20;99.90;;;6.81;87.02;95959.63;10575182;28;1977;-74
2021/10/22 16:46:06;;;;;;;;;;;8.20;99.90;;;6.70;88.90;95969.34;10574607;28;2344;-75
2021/10/22 16:51:09;;;;;;;;;;;8.10;99.90;;;6.61;90.13;95978.00;10568969;28;1823;-73
2021/10/22 16:56:12;;;;;;;;;;;8.00;99.90;;;6.61;90.86;95984.13;10575582;27;1996;-74
2021/10/22 17:01:17;;;;;;;;;;;7.90;99.90;;;6.58;91.27;95989.19;10575641;27;2316;-75
2021/10/22 17:06:21;;;;;;;;;;;7.90;99.90;;;6.51;91.51;95989.34;10575284;28;1914;-75
2021/10/22 17:11:24;;;;;;;;;;;7.90;99.90;;;6.41;91.17;96000.66;10575596;28;1922;-75
2021/10/22 17:16:29;;;;;;;;;;;7.80;99.90;;;6.36;91.87;96008.59;10573274;28;1933;-74
2021/10/22 17:21:32;;;;;;;;;;;7.70;99.90;;;6.33;92.97;96024.28;10572062;28;1906;-74
2021/10/22 17:26:36;;;;;;;;;;;7.70;99.90;;;6.27;92.89;96035.91;10575206;28;1827;-74
2021/10/22 17:31:39;;;;;;;;;;;7.60;99.90;;;6.12;93.65;96042.59;10574474;28;1945;-73
2021/10/22 17:36:42;;;;;;;;;;;7.50;99.90;;;6.09;94.28;96053.75;10571946;28;3520;-74
2021/10/22 17:41:45;;;;;;;;;;;7.40;99.90;;;6.04;95.33;96068.84;10567903;28;2323;-74
2021/10/22 17:46:48;;;;;;;;;;;7.30;99.90;;;6.07;95.74;96079.06;10573904;28;2374;-75
2021/10/22 17:51:51;;;;;;;;;;;7.30;99.90;;;6.02;96.03;96086.94;10583322;27;2316;-74
2021/10/22 17:56:54;;;;;;;;;;;7.30;99.90;;;5.99;96.14;96095.44;10577673;28;1957;-73
2021/10/22 18:01:57;;;;;;;;;;;7.20;99.90;;;5.99;96.77;96100.78;10588076;28;1973;-74
2021/10/22 18:07:01;;;;;;;;;;;7.10;99.90;;;5.87;97.91;96108.78;10594651;28;2025;-76
2021/10/22 18:12:04;;;;;;;;;;;7.10;99.90;;;5.79;98.85;96117.97;10571536;28;2368;-74
2021/10/22 18:17:07;;;;;;;;;;;7.00;99.90;;;5.81;98.89;96118.53;10574274;28;2108;-75
2021/10/22 18:22:10;;;;;;;;;;;7.00;99.90;;;5.66;100.00;96126.19;10572530;27;1977;-75
2021/10/22 18:27:13;;;;;;;;;;;6.80;99.90;;;5.72;99.51;96140.44;10574120;28;1870;-74
2021/10/22 18:32:17;;;;;;;;;;;6.80;99.90;;;5.65;100.00;96133.38;10575027;27;1921;-73
2021/10/22 18:37:21;;;;;;;;;;;6.80;99.90;;;5.59;100.00;96142.31;10582152;28;1768;-74
2021/10/22 18:42:24;;;;;;;;;;;6.70;99.90;;;5.52;100.00;96146.16;10590633;27;1971;-74
2021/10/22 18:47:27;;;;;;;;;;;6.70;99.90;;;5.43;100.00;96154.50;10563815;28;1936;-74
2021/10/22 18:52:30;;;;;;;;;;;6.60;99.90;;;5.53;100.00;96156.56;10571680;27;1862;-73
2021/10/22 18:57:33;;;;;;;;;;;6.70;99.90;;;5.53;100.00;96150.44;10576367;27;1909;-74
2021/10/22 19:02:36;;;;;;;;;;;6.60;99.90;;;5.43;100.00;96169.69;10570957;28;1424;-72
2021/10/22 19:07:39;;;;;;;;;;;6.60;99.90;;;5.48;100.00;96171.69;10569219;28;1436;-75
2021/10/22 19:12:42;;;;;;;;;;;6.60;99.90;;;5.42;100.00;96178.75;10563752;28;2357;-74
2021/10/22 19:17:45;;;;;;;;;;;6.50;99.90;;;5.37;100.00;96187.41;10570644;27;1953;-74
2021/10/22 19:22:48;;;;;;;;;;;6.50;99.90;;;5.28;100.00;96198.63;10570678;28;1890;-75
2021/10/22 19:27:51;;;;;;;;;;;6.40;99.90;;;5.23;100.00;96199.34;10571643;28;1927;-73
2021/10/22 19:32:54;;;;;;;;;;;6.40;99.90;;;5.16;100.00;96209.31;10569214;28;1782;-74
2021/10/22 19:37:57;;;;;;;;;;;6.30;99.90;;;5.18;100.00;96214.41;10567688;28;3336;-74
2021/10/22 19:43:00;;;;;;;;;;;6.30;99.90;;;5.02;100.00;96223.84;10566911;28;2362;-74
2021/10/22 19:48:03;;;;;;;;;;;6.40;99.90;;;5.15;100.00;96220.97;10570438;28;2371;-73
2021/10/22 19:53:07;;;;;;;;;;;6.40;99.90;;;5.02;100.00;96229.16;10569150;28;2324;-75
2021/10/22 19:58:10;;;;;;;;;;;6.30;99.90;;;4.92;100.00;96237.72;10566791;28;1913;-76
2021/10/22 20:03:15;;;;;;;;;;;6.30;99.90;;;4.93;100.00;96250.00;10566081;28;1921;-75
2021/10/22 20:08:18;;;;;;;;;;;6.10;99.90;;;4.87;100.00;96262.38;10570396;28;1839;-74
2021/10/22 20:13:41;;;;;;;;;;;6.00;99.90;;;4.71;100.00;96273.66;10559920;28;2101;-75
2021/10/22 20:18:47;;;;;;;;;;;5.90;99.90;;;4.70;100.00;96272.00;10568126;28;1910;-75
2021/10/22 20:24:10;;;;;;;;;;;5.90;99.90;;;4.60;100.00;96277.06;10563594;28;1874;-75
2021/10/22 20:29:14;;;;;;;;;;;5.80;99.90;;;4.48;100.00;96284.19;10567712;28;1823;-75
2021/10/22 20:34:17;;;;;;;;;;;5.70;99.90;;;4.58;100.00;96284.44;10541522;28;1938;-74
2021/10/22 20:39:20;;;;;;;;;;;5.70;99.90;;;4.46;100.00;96292.38;10569043;28;2008;-75
2021/10/22 20:44:23;;;;;;;;;;;5.80;99.90;;;4.52;100.00;96306.66;10569742;28;1878;-75
2021/10/22 20:49:40;;;;;;;;;;;5.90;99.90;;;4.57;100.00;96309.44;10563151;28;1886;-73
2021/10/22 21:00:06;;;;;;;;;;;5.60;99.90;;;4.42;100.00;96317.81;10572189;28;1972;-74
2021/10/22 21:05:10;;;;;;;;;;;5.60;99.90;;;4.29;100.00;96329.41;10571620;27;1938;-75
2021/10/22 21:10:12;;;;;;;;;;;5.60;99.90;;;4.20;100.00;96333.41;10574688;27;2340;-74
2021/10/22 21:15:15;;;;;;;;;;;5.40;99.90;;;4.25;100.00;96336.19;10573667;28;1775;-74
2021/10/22 21:20:18;;;;;;;;;;;5.60;99.90;;;4.18;100.00;96332.78;10575007;28;1972;-75
2021/10/22 21:25:22;;;;;;;;;;;5.40;99.90;;;4.13;100.00;96324.66;10555861;28;1918;-72
2021/10/22 21:30:25;;;;;;;;;;;5.50;99.90;;;4.18;100.00;96321.34;10573143;28;1874;-74
2021/10/22 21:35:28;;;;;;;;;;;5.40;99.90;;;4.07;100.00;96331.69;10573677;28;1929;-74
2021/10/22 21:40:35;;;;;;;;;;;5.30;99.90;;;4.07;100.00;96334.34;10574847;28;1983;-74
2021/10/22 21:45:38;;;;;;;;;;;5.30;99.90;;;3.95;100.00;96338.75;10568471;28;1937;-74
2021/10/22 21:50:42;;;;;;;;;;;5.20;99.90;;;4.17;100.00;96341.00;10571913;28;1928;-73
2021/10/22 21:55:45;;;;;;;;;;;5.30;99.90;;;4.11;100.00;96337.38;10554375;27;1883;-74
2021/10/22 22:01:06;;;;;;;;;;;5.20;99.90;;;4.09;100.00;96343.94;10571425;28;1925;-75
2021/10/22 22:06:09;;;;;;;;;;;5.30;99.90;;;4.20;100.00;96336.06;10575944;28;1854;-74
2021/10/22 22:11:12;;;;;;;;;;;5.30;99.90;;;4.23;100.00;96338.28;10576675;28;1867;-73
2021/10/22 22:16:15;;;;;;;;;;;5.40;99.90;;;4.15;100.00;96338.56;10594218;28;1480;-75
2021/10/22 22:21:18;;;;;;;;;;;5.30;99.90;;;4.15;100.00;96341.22;10589376;28;1890;-74
2021/10/22 22:26:20;;;;;;;;;;;5.30;99.90;;;4.18;100.00;96330.13;10586801;28;1193;-75
2021/10/22 22:31:24;;;;;;;;;;;5.30;99.90;;;4.20;100.00;96337.88;10580405;27;1917;-75
2021/10/22 22:36:27;;;;;;;;;;;5.30;99.90;;;4.22;100.00;96334.00;10574516;27;1732;-76
2021/10/22 22:41:30;;;;;;;;;;;5.30;99.90;;;4.35;100.00;96327.72;10569571;27;1910;-75
2021/10/22 22:46:33;;;;;;;;;;;5.40;99.90;;;4.27;99.58;96344.78;10571117;28;1967;-74
2021/10/22 22:51:39;;;;;;;;;;;5.30;99.90;;;4.30;99.92;96349.66;10554183;27;1902;-73
2021/10/22 22:56:42;;;;;;;;;;;5.40;99.90;;;4.13;100.00;96356.56;10568569;28;1839;-74
2021/10/22 23:01:45;;;;;;;;;;;5.30;99.90;;;4.07;100.00;96358.28;10567867;28;1977;-73
2021/10/22 23:06:48;;;;;;;;;;;5.20;99.90;;;4.02;100.00;96360.78;10570463;27;2133;-73
2021/10/22 23:11:51;;;;;;;;;;;5.20;99.90;;;3.99;100.00;96366.53;10569361;27;1835;-73
2021/10/22 23:16:54;;;;;;;;;;;5.20;99.90;;;3.92;100.00;96371.09;10571699;28;1846;-73
2021/10/22 23:21:58;;;;;;;;;;;5.10;99.90;;;3.86;100.00;96373.81;10567355;28;1936;-73
2021/10/22 23:27:01;;;;;;;;;;;5.10;99.90;;;3.69;100.00;96374.34;10552110;28;1895;-72
2021/10/22 23:32:04;;;;;;;;;;;4.90;99.90;;;3.72;100.00;96375.75;10568200;28;1901;-73
2021/10/22 23:37:07;;;;;;;;;;;4.80;99.90;;;3.78;100.00;96378.34;10564001;28;1887;-73
2021/10/22 23:42:10;;;;;;;;;;;4.90;99.90;;;3.81;100.00;96385.06;10550271;28;1974;-72
2021/10/22 23:47:12;;;;;;;;;;;4.90;99.90;;;3.81;100.00;96385.06;10568699;28;1882;-72
2021/10/22 23:52:15;;;;;;;;;;;5.00;99.90;;;3.85;100.00;96380.97;10554674;28;1846;-72